sensor_id;sensor_type;location;lat;lon;timestamp;pressure;altitude;pressure_sealevel;temperature;humidity
51715;BME280;39115;59.332;18.034;2023-03-14T00:01:55;96814.84;;;6.26;76.94
51715;BME280;39115;59.332;18.034;2023-03-14T00:04:15;96803.25;;;6.27;77.44
51715;BME280;39115;59.332;18.034;2023-03-14T00:06:36;96795.34;;;6.27;77.14
51715;BME280;39115;59.332;18.034;2023-03-14T00:08:56;96806.69;;;6.27;77.40
51715;BME280;39115;59.332;18.034;2023-03-14T00:11:19;96796.97;;;6.28;77.20
51715;BME280;39115;59.332;18.034;2023-03-14T00:13:41;96795.97;;;6.29;77.45
51715;BME280;39115;59.332;18.034;2023-03-14T00:16:07;96788.84;;;6.29;77.03
51715;BME280;39115;59.332;18.034;2023-03-14T00:18:28;96788.03;;;6.29;77.04
51715;BME280;39115;59.332;18.034;2023-03-14T00:20:48;96796.75;;;6.29;77.23
51715;BME280;39115;59.332;18.034;2023-03-14T00:23:09;96801.25;;;6.29;77.00
51715;BME280;39115;59.332;18.034;2023-03-14T00:25:29;96790.66;;;6.29;77.68
51715;BME280;39115;59.332;18.034;2023-03-14T00:27:51;96789.63;;;6.30;77.30
51715;BME280;39115;59.332;18.034;2023-03-14T00:30:12;96799.59;;;6.28;76.81
51715;BME280;39115;59.332;18.034;2023-03-14T00:32:32;96789.03;;;6.28;77.04
51715;BME280;39115;59.332;18.034;2023-03-14T00:34:53;96795.97;;;6.29;77.64
51715;BME280;39115;59.332;18.034;2023-03-14T00:37:13;96793.31;;;6.29;77.15
51715;BME280;39115;59.332;18.034;2023-03-14T00:39:34;96781.91;;;6.28;77.23
51715;BME280;39115;59.332;18.034;2023-03-14T00:41:54;96784.56;;;6.28;77.23
51715;BME280;39115;59.332;18.034;2023-03-14T00:44:15;96786.19;;;6.29;77.66
51715;BME280;39115;59.332;18.034;2023-03-14T00:46:35;96787.81;;;6.30;77.29
51715;BME280;39115;59.332;18.034;2023-03-14T00:48:56;96779.91;;;6.30;77.47
51715;BME280;39115;59.332;18.034;2023-03-14T00:51:16;96778.66;;;6.33;77.17
51715;BME280;39115;59.332;18.034;2023-03-14T00:53:38;96784.78;;;6.33;77.22
51715;BME280;39115;59.332;18.034;2023-03-14T00:56:03;96774.22;;;6.33;77.56
51715;BME280;39115;59.332;18.034;2023-03-14T00:58:24;96764.25;;;6.36;77.44
51715;BME280;39115;59.332;18.034;2023-03-14T01:00:45;96771.97;;;6.37;77.36
51715;BME280;39115;59.332;18.034;2023-03-14T01:03:07;96771.97;;;6.37;77.75
51715;BME280;39115;59.332;18.034;2023-03-14T01:05:28;96751.66;;;6.38;77.43
51715;BME280;39115;59.332;18.034;2023-03-14T01:07:49;96768.09;;;6.40;77.32
51715;BME280;39115;59.332;18.034;2023-03-14T01:10:11;96772.16;;;6.42;77.32
51715;BME280;39115;59.332;18.034;2023-03-14T01:12:31;96773.97;;;6.42;77.65
51715;BME280;39115;59.332;18.034;2023-03-14T01:14:52;96763.41;;;6.42;77.36
51715;BME280;39115;59.332;18.034;2023-03-14T01:17:12;96762.41;;;6.43;77.31
51715;BME280;39115;59.332;18.034;2023-03-14T01:19:33;96755.47;;;6.42;77.72
51715;BME280;39115;59.332;18.034;2023-03-14T01:21:53;96754.28;;;6.44;77.43
51715;BME280;39115;59.332;18.034;2023-03-14T01:24:14;96753.25;;;6.45;77.45
51715;BME280;39115;59.332;18.034;2023-03-14T01:26:35;96746.16;;;6.46;77.29
51715;BME280;39115;59.332;18.034;2023-03-14T01:28:56;96755.09;;;6.45;77.19
51715;BME280;39115;59.332;18.034;2023-03-14T01:31:17;96761.16;;;6.45;77.86
51715;BME280;39115;59.332;18.034;2023-03-14T01:33:38;96760.97;;;6.47;77.93
51715;BME280;39115;59.332;18.034;2023-03-14T01:35:59;96759.13;;;6.47;77.52
51715;BME280;39115;59.332;18.034;2023-03-14T01:38:22;96756.50;;;6.47;77.77
51715;BME280;39115;59.332;18.034;2023-03-14T01:40:45;96756.50;;;6.47;77.39
51715;BME280;39115;59.332;18.034;2023-03-14T01:43:14;96752.84;;;6.48;77.61
51715;BME280;39115;59.332;18.034;2023-03-14T01:48:14;96760.56;;;6.50;77.60
51715;BME280;39115;59.332;18.034;2023-03-14T01:50:34;96757.13;;;6.49;77.81
51715;BME280;39115;59.332;18.034;2023-03-14T01:52:55;96770.09;;;6.51;77.68
51715;BME280;39115;59.332;18.034;2023-03-14T01:55:18;96755.28;;;6.50;77.72
51715;BME280;39115;59.332;18.034;2023-03-14T01:57:47;96755.28;;;6.50;77.82
51715;BME280;39115;59.332;18.034;2023-03-14T02:00:13;96780.09;;;6.49;77.93
51715;BME280;39115;59.332;18.034;2023-03-14T02:02:34;96763.41;;;6.48;78.02
51715;BME280;39115;59.332;18.034;2023-03-14T02:04:56;96794.31;;;6.48;77.47
51715;BME280;39115;59.332;18.034;2023-03-14T02:07:22;96787.19;;;6.48;77.98
51715;BME280;39115;59.332;18.034;2023-03-14T02:09:42;96786.19;;;6.49;77.56
51715;BME280;39115;59.332;18.034;2023-03-14T02:12:03;96796.97;;;6.48;77.57
51715;BME280;39115;59.332;18.034;2023-03-14T02:14:29;96802.81;;;6.50;78.22
51715;BME280;39115;59.332;18.034;2023-03-14T02:16:50;96812.38;;;6.51;78.11
51715;BME280;39115;59.332;18.034;2023-03-14T02:19:12;96828.06;;;6.53;77.98
51715;BME280;39115;59.332;18.034;2023-03-14T02:21:57;96823.78;;;6.52;77.76
51715;BME280;39115;59.332;18.034;2023-03-14T02:24:40;96820.13;;;6.53;77.85
51715;BME280;39115;59.332;18.034;2023-03-14T02:27:07;96828.06;;;6.53;77.93
51715;BME280;39115;59.332;18.034;2023-03-14T02:29:28;96818.28;;;6.53;77.78
51715;BME280;39115;59.332;18.034;2023-03-14T02:31:49;96824.38;;;6.54;77.84
51715;BME280;39115;59.332;18.034;2023-03-14T02:34:10;96826.22;;;6.53;78.18
51715;BME280;39115;59.332;18.034;2023-03-14T02:36:31;96823.34;;;6.55;77.95
51715;BME280;39115;59.332;18.034;2023-03-14T02:39:08;96826.00;;;6.55;78.03
51715;BME280;39115;59.332;18.034;2023-03-14T02:41:32;96837.41;;;6.55;78.02
51715;BME280;39115;59.332;18.034;2023-03-14T02:43:52;96842.47;;;6.57;77.78
51715;BME280;39115;59.332;18.034;2023-03-14T02:46:14;96846.75;;;6.58;77.71
51715;BME280;39115;59.332;18.034;2023-03-14T02:48:41;96837.97;;;6.57;78.08
51715;BME280;39115;59.332;18.034;2023-03-14T02:51:03;96850.19;;;6.58;78.13
51715;BME280;39115;59.332;18.034;2023-03-14T02:53:33;96836.78;;;6.60;77.78
51715;BME280;39115;59.332;18.034;2023-03-14T02:55:54;96846.34;;;6.61;78.16
51715;BME280;39115;59.332;18.034;2023-03-14T02:58:15;96847.13;;;6.61;77.79
51715;BME280;39115;59.332;18.034;2023-03-14T03:00:36;96842.66;;;6.62;77.73
51715;BME280;39115;59.332;18.034;2023-03-14T03:02:56;96842.06;;;6.60;78.05
51715;BME280;39115;59.332;18.034;2023-03-14T03:05:17;96844.72;;;6.60;77.86
51715;BME280;39115;59.332;18.034;2023-03-14T03:07:37;96850.00;;;6.60;78.11
51715;BME280;39115;59.332;18.034;2023-03-14T03:09:58;96858.72;;;6.60;77.80
51715;BME280;39115;59.332;18.034;2023-03-14T03:12:18;96861.38;;;6.60;78.11
51715;BME280;39115;59.332;18.034;2023-03-14T03:14:39;96855.28;;;6.60;78.04
51715;BME280;39115;59.332;18.034;2023-03-14T03:16:59;96840.22;;;6.60;78.08
51715;BME280;39115;59.332;18.034;2023-03-14T03:19:20;96852.63;;;6.60;77.96
51715;BME280;39115;59.332;18.034;2023-03-14T03:21:41;96850.78;;;6.60;78.02
51715;BME280;39115;59.332;18.034;2023-03-14T03:24:01;96854.44;;;6.59;77.94
51715;BME280;39115;59.332;18.034;2023-03-14T03:26:22;96868.69;;;6.58;77.95
51715;BME280;39115;59.332;18.034;2023-03-14T03:28:42;96858.31;;;6.57;77.43
51715;BME280;39115;59.332;18.034;2023-03-14T03:31:07;96865.44;;;6.56;78.18
51715;BME280;39115;59.332;18.034;2023-03-14T03:33:28;96867.88;;;6.58;77.79
51715;BME280;39115;59.332;18.034;2023-03-14T03:35:50;96874.97;;;6.57;77.91
51715;BME280;39115;59.332;18.034;2023-03-14T03:38:11;96882.72;;;6.59;77.94
51715;BME280;39115;59.332;18.034;2023-03-14T03:40:32;96891.25;;;6.61;77.59
51715;BME280;39115;59.332;18.034;2023-03-14T03:42:52;96892.88;;;6.62;77.74
51715;BME280;39115;59.332;18.034;2023-03-14T03:45:12;96896.97;;;6.64;77.64
51715;BME280;39115;59.332;18.034;2023-03-14T03:47:33;96897.53;;;6.67;77.36
51715;BME280;39115;59.332;18.034;2023-03-14T03:49:53;96882.31;;;6.69;77.16
51715;BME280;39115;59.332;18.034;2023-03-14T03:52:14;96896.31;;;6.69;77.60
51715;BME280;39115;59.332;18.034;2023-03-14T03:54:35;96905.06;;;6.70;77.51
51715;BME280;39115;59.332;18.034;2023-03-14T03:56:56;96882.09;;;6.70;77.14
51715;BME280;39115;59.332;18.034;2023-03-14T03:59:16;96901.41;;;6.71;77.28
51715;BME280;39115;59.332;18.034;2023-03-14T04:01:37;96892.66;;;6.70;77.33
51715;BME280;39115;59.332;18.034;2023-03-14T04:03:57;96889.00;;;6.71;76.72
51715;BME280;39115;59.332;18.034;2023-03-14T04:06:18;96898.78;;;6.71;76.95
51715;BME280;39115;59.332;18.034;2023-03-14T04:08:38;96906.69;;;6.71;76.80
51715;BME280;39115;59.332;18.034;2023-03-14T04:11:01;96930.50;;;6.71;76.55
51715;BME280;39115;59.332;18.034;2023-03-14T04:13:22;96939.22;;;6.71;76.72
51715;BME280;39115;59.332;18.034;2023-03-14T04:15:43;96920.72;;;6.71;76.67
51715;BME280;39115;59.332;18.034;2023-03-14T04:18:03;96918.91;;;6.72;76.20
51715;BME280;39115;59.332;18.034;2023-03-14T04:20:24;96910.16;;;6.71;76.51
51715;BME280;39115;59.332;18.034;2023-03-14T04:22:44;96909.34;;;6.71;76.27
51715;BME280;39115;59.332;18.034;2023-03-14T04:25:05;96903.22;;;6.70;76.06
51715;BME280;39115;59.332;18.034;2023-03-14T04:27:26;96913.81;;;6.70;75.86
51715;BME280;39115;59.332;18.034;2023-03-14T04:29:47;96919.31;;;6.69;75.96
51715;BME280;39115;59.332;18.034;2023-03-14T04:32:07;96933.75;;;6.66;75.78
51715;BME280;39115;59.332;18.034;2023-03-14T04:34:28;96943.47;;;6.65;75.78
51715;BME280;39115;59.332;18.034;2023-03-14T04:36:48;96927.84;;;6.64;75.90
51715;BME280;39115;59.332;18.034;2023-03-14T04:39:08;96933.34;;;6.62;75.67
51715;BME280;39115;59.332;18.034;2023-03-14T04:41:29;96927.22;;;6.62;75.83
51715;BME280;39115;59.332;18.034;2023-03-14T04:43:49;96952.84;;;6.61;75.61
51715;BME280;39115;59.332;18.034;2023-03-14T04:46:10;96951.00;;;6.62;76.01
51715;BME280;39115;59.332;18.034;2023-03-14T04:48:31;96949.41;;;6.61;75.90
51715;BME280;39115;59.332;18.034;2023-03-14T04:50:51;96953.06;;;6.60;75.85
51715;BME280;39115;59.332;18.034;2023-03-14T04:53:13;96960.16;;;6.59;75.62
51715;BME280;39115;59.332;18.034;2023-03-14T04:55:33;96961.78;;;6.60;75.20
51715;BME280;39115;59.332;18.034;2023-03-14T04:57:55;96960.16;;;6.59;75.30
51715;BME280;39115;59.332;18.034;2023-03-14T05:00:16;96968.28;;;6.58;75.43
51715;BME280;39115;59.332;18.034;2023-03-14T05:02:38;96962.16;;;6.57;75.04
51715;BME280;39115;59.332;18.034;2023-03-14T05:04:59;96966.88;;;6.55;74.99
51715;BME280;39115;59.332;18.034;2023-03-14T05:07:19;96979.06;;;6.56;75.16
51715;BME280;39115;59.332;18.034;2023-03-14T05:09:40;96982.50;;;6.57;75.12
51715;BME280;39115;59.332;18.034;2023-03-14T05:12:00;96969.50;;;6.55;74.89
51715;BME280;39115;59.332;18.034;2023-03-14T05:14:21;96979.25;;;6.55;74.84
51715;BME280;39115;59.332;18.034;2023-03-14T05:16:41;96995.94;;;6.55;74.58
51715;BME280;39115;59.332;18.034;2023-03-14T05:19:02;97009.31;;;6.54;74.73
51715;BME280;39115;59.332;18.034;2023-03-14T05:21:22;97015.44;;;6.54;74.58
51715;BME280;39115;59.332;18.034;2023-03-14T05:23:43;97018.28;;;6.53;74.59
51715;BME280;39115;59.332;18.034;2023-03-14T05:26:03;97034.31;;;6.51;74.14
51715;BME280;39115;59.332;18.034;2023-03-14T05:28:24;97048.75;;;6.48;74.33
51715;BME280;39115;59.332;18.034;2023-03-14T05:30:44;97030.25;;;6.48;74.42
51715;BME280;39115;59.332;18.034;2023-03-14T05:33:05;97033.09;;;6.47;74.17
51715;BME280;39115;59.332;18.034;2023-03-14T05:35:25;97033.91;;;6.47;74.46
51715;BME280;39115;59.332;18.034;2023-03-14T05:37:46;97043.84;;;6.45;73.89
51715;BME280;39115;59.332;18.034;2023-03-14T05:40:06;97044.69;;;6.46;73.92
51715;BME280;39115;59.332;18.034;2023-03-14T05:42:28;97058.91;;;6.45;73.97
51715;BME280;39115;59.332;18.034;2023-03-14T05:44:49;97056.47;;;6.43;74.15
51715;BME280;39115;59.332;18.034;2023-03-14T05:47:10;97068.84;;;6.43;73.83
51715;BME280;39115;59.332;18.034;2023-03-14T05:49:30;97075.13;;;6.42;73.89
51715;BME280;39115;59.332;18.034;2023-03-14T05:51:51;97075.13;;;6.42;73.82
51715;BME280;39115;59.332;18.034;2023-03-14T05:54:11;97080.84;;;6.39;73.55
51715;BME280;39115;59.332;18.034;2023-03-14T05:56:33;97102.78;;;6.39;73.51
51715;BME280;39115;59.332;18.034;2023-03-14T05:58:53;97099.53;;;6.37;73.61
51715;BME280;39115;59.332;18.034;2023-03-14T06:01:14;97121.66;;;6.36;73.73
51715;BME280;39115;59.332;18.034;2023-03-14T06:03:35;97109.25;;;6.37;73.37
51715;BME280;39115;59.332;18.034;2023-03-14T06:05:55;97107.63;;;6.36;73.69
51715;BME280;39115;59.332;18.034;2023-03-14T06:08:16;97100.72;;;6.35;73.27
51715;BME280;39115;59.332;18.034;2023-03-14T06:10:36;97116.38;;;6.36;73.12
51715;BME280;39115;59.332;18.034;2023-03-14T06:12:57;97125.94;;;6.37;73.17
51715;BME280;39115;59.332;18.034;2023-03-14T06:15:18;97123.31;;;6.37;73.36
51715;BME280;39115;59.332;18.034;2023-03-14T06:17:38;97109.25;;;6.37;73.26
51715;BME280;39115;59.332;18.034;2023-03-14T06:19:59;97117.19;;;6.37;73.07
51715;BME280;39115;59.332;18.034;2023-03-14T06:22:19;97139.34;;;6.36;73.39
51715;BME280;39115;59.332;18.034;2023-03-14T06:24:40;97146.66;;;6.33;72.97
51715;BME280;39115;59.332;18.034;2023-03-14T06:27:00;97159.88;;;6.33;73.28
51715;BME280;39115;59.332;18.034;2023-03-14T06:29:23;97152.94;;;6.32;73.40
51715;BME280;39115;59.332;18.034;2023-03-14T06:31:43;97159.41;;;6.30;73.05
51715;BME280;39115;59.332;18.034;2023-03-14T06:34:04;97161.03;;;6.31;72.92
51715;BME280;39115;59.332;18.034;2023-03-14T06:36:24;97174.25;;;6.31;73.26
51715;BME280;39115;59.332;18.034;2023-03-14T06:38:45;97174.25;;;6.31;73.18
51715;BME280;39115;59.332;18.034;2023-03-14T06:41:06;97179.75;;;6.29;72.99
51715;BME280;39115;59.332;18.034;2023-03-14T06:43:27;97187.66;;;6.29;72.94
51715;BME280;39115;59.332;18.034;2023-03-14T06:45:47;97193.94;;;6.28;72.84
51715;BME280;39115;59.332;18.034;2023-03-14T06:48:08;97196.59;;;6.28;72.57
51715;BME280;39115;59.332;18.034;2023-03-14T06:50:28;97201.88;;;6.28;72.26
51715;BME280;39115;59.332;18.034;2023-03-14T06:52:49;97207.38;;;6.27;72.38
51715;BME280;39115;59.332;18.034;2023-03-14T06:55:09;97207.38;;;6.27;72.19
51715;BME280;39115;59.332;18.034;2023-03-14T06:57:30;97210.81;;;6.27;72.17
51715;BME280;39115;59.332;18.034;2023-03-14T06:59:50;97217.94;;;6.27;72.42
51715;BME280;39115;59.332;18.034;2023-03-14T07:02:11;97236.41;;;6.27;72.55
51715;BME280;39115;59.332;18.034;2023-03-14T07:04:32;97232.94;;;6.26;72.21
51715;BME280;39115;59.332;18.034;2023-03-14T07:06:53;97243.50;;;6.26;72.01
51715;BME280;39115;59.332;18.034;2023-03-14T07:09:14;97242.72;;;6.26;71.75
51715;BME280;39115;59.332;18.034;2023-03-14T07:11:37;97251.84;;;6.23;72.05
51715;BME280;39115;59.332;18.034;2023-03-14T07:13:57;97268.69;;;6.22;72.04
51715;BME280;39115;59.332;18.034;2023-03-14T07:16:18;97274.34;;;6.19;71.82
51715;BME280;39115;59.332;18.034;2023-03-14T07:18:38;97280.66;;;6.18;72.10
51715;BME280;39115;59.332;18.034;2023-03-14T07:20:59;97287.31;;;6.14;72.08
51715;BME280;39115;59.332;18.034;2023-03-14T07:23:19;97283.03;;;6.13;71.82
51715;BME280;39115;59.332;18.034;2023-03-14T07:25:40;97296.22;;;6.13;71.69
51715;BME280;39115;59.332;18.034;2023-03-14T07:28:01;97300.31;;;6.15;71.61
51715;BME280;39115;59.332;18.034;2023-03-14T07:30:21;97303.59;;;6.17;71.64
51715;BME280;39115;59.332;18.034;2023-03-14T07:32:42;97307.66;;;6.20;71.60
51715;BME280;39115;59.332;18.034;2023-03-14T07:35:02;97310.56;;;6.25;71.23
51715;BME280;39115;59.332;18.034;2023-03-14T07:37:23;97310.44;;;6.33;71.01
51715;BME280;39115;59.332;18.034;2023-03-14T07:39:44;97323.34;;;6.50;70.67
51715;BME280;39115;59.332;18.034;2023-03-14T07:42:04;97326.09;;;6.63;69.79
51715;BME280;39115;59.332;18.034;2023-03-14T07:44:25;97330.66;;;6.76;70.08
51715;BME280;39115;59.332;18.034;2023-03-14T07:46:45;97346.41;;;6.91;69.76
51715;BME280;39115;59.332;18.034;2023-03-14T07:49:06;97351.75;;;7.05;69.09
51715;BME280;39115;59.332;18.034;2023-03-14T07:51:26;97336.78;;;7.19;69.06
51715;BME280;39115;59.332;18.034;2023-03-14T07:53:47;97338.47;;;7.26;68.30
51715;BME280;39115;59.332;18.034;2023-03-14T07:56:07;97342.38;;;7.37;68.62
51715;BME280;39115;59.332;18.034;2023-03-14T07:58:28;97349.72;;;7.49;68.28
51715;BME280;39115;59.332;18.034;2023-03-14T08:00:49;97354.84;;;7.50;67.74
51715;BME280;39115;59.332;18.034;2023-03-14T08:03:10;97357.28;;;7.58;67.67
51715;BME280;39115;59.332;18.034;2023-03-14T08:05:30;97365.09;;;7.73;67.45
51715;BME280;39115;59.332;18.034;2023-03-14T08:07:51;97357.59;;;7.90;66.95
51715;BME280;39115;59.332;18.034;2023-03-14T08:10:11;97354.16;;;8.03;66.61
51715;BME280;39115;59.332;18.034;2023-03-14T08:12:36;97359.66;;;8.02;66.54
51715;BME280;39115;59.332;18.034;2023-03-14T08:14:56;97348.47;;;8.06;66.73
51715;BME280;39115;59.332;18.034;2023-03-14T08:17:16;97364.56;;;8.12;66.89
51715;BME280;39115;59.332;18.034;2023-03-14T08:19:37;97358.47;;;8.11;66.12
51715;BME280;39115;59.332;18.034;2023-03-14T08:21:58;97365.38;;;8.05;66.53
51715;BME280;39115;59.332;18.034;2023-03-14T08:24:18;97375.13;;;7.98;66.61
51715;BME280;39115;59.332;18.034;2023-03-14T08:26:39;97393.44;;;7.86;67.02
51715;BME280;39115;59.332;18.034;2023-03-14T08:28:59;97394.41;;;7.72;67.42
51715;BME280;39115;59.332;18.034;2023-03-14T08:31:20;97398.84;;;7.58;67.44
51715;BME280;39115;59.332;18.034;2023-03-14T08:33:41;97390.84;;;7.44;67.80
51715;BME280;39115;59.332;18.034;2023-03-14T08:36:01;97395.09;;;7.39;68.00
51715;BME280;39115;59.332;18.034;2023-03-14T08:38:22;97402.97;;;7.32;68.22
51715;BME280;39115;59.332;18.034;2023-03-14T08:40:43;97410.25;;;7.23;68.11
51715;BME280;39115;59.332;18.034;2023-03-14T08:43:03;97416.94;;;7.19;68.12
51715;BME280;39115;59.332;18.034;2023-03-14T08:45:24;97404.34;;;7.21;68.17
51715;BME280;39115;59.332;18.034;2023-03-14T08:47:45;97408.56;;;7.16;68.18
51715;BME280;39115;59.332;18.034;2023-03-14T08:50:07;97384.75;;;7.09;68.45
51715;BME280;39115;59.332;18.034;2023-03-14T08:52:27;97404.91;;;7.10;68.18
51715;BME280;39115;59.332;18.034;2023-03-14T08:54:48;97407.28;;;7.05;68.69
51715;BME280;39115;59.332;18.034;2023-03-14T08:57:08;97396.56;;;7.13;68.27
51715;BME280;39115;59.332;18.034;2023-03-14T08:59:29;97404.13;;;7.16;68.23
51715;BME280;39115;59.332;18.034;2023-03-14T09:01:50;97412.44;;;7.13;67.96
51715;BME280;39115;59.332;18.034;2023-03-14T09:04:10;97417.28;;;7.09;67.97
51715;BME280;39115;59.332;18.034;2023-03-14T09:06:31;97415.22;;;7.05;68.05
51715;BME280;39115;59.332;18.034;2023-03-14T09:08:51;97415.78;;;6.93;68.37
51715;BME280;39115;59.332;18.034;2023-03-14T09:11:12;97404.72;;;6.83;68.13
51715;BME280;39115;59.332;18.034;2023-03-14T09:13:33;97400.00;;;6.78;67.85
51715;BME280;39115;59.332;18.034;2023-03-14T09:15:54;97406.00;;;6.94;67.57
51715;BME280;39115;59.332;18.034;2023-03-14T09:18:15;97403.91;;;7.18;67.28
51715;BME280;39115;59.332;18.034;2023-03-14T09:20:35;97406.03;;;7.36;66.89
51715;BME280;39115;59.332;18.034;2023-03-14T09:22:56;97410.16;;;7.45;66.38
51715;BME280;39115;59.332;18.034;2023-03-14T09:25:16;97417.94;;;7.53;66.51
51715;BME280;39115;59.332;18.034;2023-03-14T09:27:37;97425.69;;;7.55;66.11
51715;BME280;39115;59.332;18.034;2023-03-14T09:29:57;97417.56;;;7.56;65.97
51715;BME280;39115;59.332;18.034;2023-03-14T09:32:18;97427.16;;;7.64;66.06
51715;BME280;39115;59.332;18.034;2023-03-14T09:34:38;97434.50;;;7.69;65.59
51715;BME280;39115;59.332;18.034;2023-03-14T09:36:59;97439.44;;;7.79;65.42
51715;BME280;39115;59.332;18.034;2023-03-14T09:39:20;97445.56;;;7.86;65.38
51715;BME280;39115;59.332;18.034;2023-03-14T09:41:43;97445.81;;;7.91;65.30
51715;BME280;39115;59.332;18.034;2023-03-14T09:44:29;97443.16;;;7.98;65.28
51715;BME280;39115;59.332;18.034;2023-03-14T09:46:52;97456.41;;;7.98;65.07
51715;BME280;39115;59.332;18.034;2023-03-14T09:49:40;97470.06;;;7.95;65.52
51715;BME280;39115;59.332;18.034;2023-03-14T09:52:06;97459.22;;;7.89;65.09
51715;BME280;39115;59.332;18.034;2023-03-14T09:54:38;97461.06;;;7.89;65.15
51715;BME280;39115;59.332;18.034;2023-03-14T09:56:59;97464.53;;;7.89;64.84
51715;BME280;39115;59.332;18.034;2023-03-14T09:59:20;97471.06;;;7.94;64.67
51715;BME280;39115;59.332;18.034;2023-03-14T10:01:40;97463.13;;;7.94;64.60
51715;BME280;39115;59.332;18.034;2023-03-14T10:04:06;97469.84;;;7.96;64.77
51715;BME280;39115;59.332;18.034;2023-03-14T10:06:29;97480.25;;;7.98;64.55
51715;BME280;39115;59.332;18.034;2023-03-14T10:08:50;97484.75;;;7.97;64.52
51715;BME280;39115;59.332;18.034;2023-03-14T10:11:17;97487.78;;;7.94;64.46
51715;BME280;39115;59.332;18.034;2023-03-14T10:13:47;97488.59;;;7.95;64.64
51715;BME280;39115;59.332;18.034;2023-03-14T10:16:08;97493.47;;;7.91;64.43
51715;BME280;39115;59.332;18.034;2023-03-14T10:18:30;97497.94;;;7.90;64.04
51715;BME280;39115;59.332;18.034;2023-03-14T10:23:38;97502.47;;;7.97;63.86
51715;BME280;39115;59.332;18.034;2023-03-14T10:26:07;97505.56;;;8.00;64.05
51715;BME280;39115;59.332;18.034;2023-03-14T10:28:31;97506.97;;;8.03;63.95
51715;BME280;39115;59.332;18.034;2023-03-14T10:30:54;97515.78;;;8.10;63.79
51715;BME280;39115;59.332;18.034;2023-03-14T10:35:38;97510.09;;;8.20;63.52
51715;BME280;39115;59.332;18.034;2023-03-14T10:38:03;97501.56;;;8.25;63.08
51715;BME280;39115;59.332;18.034;2023-03-14T10:40:28;97511.78;;;8.28;63.18
51715;BME280;39115;59.332;18.034;2023-03-14T10:42:50;97506.47;;;8.28;63.14
51715;BME280;39115;59.332;18.034;2023-03-14T10:45:35;97507.47;;;8.27;63.76
51715;BME280;39115;59.332;18.034;2023-03-14T10:47:59;97511.13;;;8.26;63.50
51715;BME280;39115;59.332;18.034;2023-03-14T10:50:26;97511.13;;;8.26;63.29
51715;BME280;39115;59.332;18.034;2023-03-14T10:52:48;97519.69;;;8.21;62.99
51715;BME280;39115;59.332;18.034;2023-03-14T10:55:11;97520.47;;;8.21;63.06
51715;BME280;39115;59.332;18.034;2023-03-14T10:57:38;97523.34;;;8.20;63.19
51715;BME280;39115;59.332;18.034;2023-03-14T10:59:59;97529.66;;;8.19;63.41
51715;BME280;39115;59.332;18.034;2023-03-14T11:05:03;97543.06;;;8.04;63.00
51715;BME280;39115;59.332;18.034;2023-03-14T11:10:37;97549.53;;;7.95;63.49
51715;BME280;39115;59.332;18.034;2023-03-14T11:13:43;97547.41;;;7.83;63.28
51715;BME280;39115;59.332;18.034;2023-03-14T11:16:17;97551.22;;;7.74;63.54
51715;BME280;39115;59.332;18.034;2023-03-14T11:18:46;97548.78;;;7.72;63.41
51715;BME280;39115;59.332;18.034;2023-03-14T11:28:56;97553.59;;;7.62;63.16
51715;BME280;39115;59.332;18.034;2023-03-14T11:31:29;97559.91;;;7.61;63.30
51715;BME280;39115;59.332;18.034;2023-03-14T11:34:19;97560.94;;;7.60;63.40
51715;BME280;39115;59.332;18.034;2023-03-14T11:36:53;97561.09;;;7.58;63.35
51715;BME280;39115;59.332;18.034;2023-03-14T11:39:16;97563.94;;;7.57;63.40
51715;BME280;39115;59.332;18.034;2023-03-14T11:41:40;97573.09;;;7.54;63.44
51715;BME280;39115;59.332;18.034;2023-03-14T11:44:08;97566.16;;;7.53;63.62
51715;BME280;39115;59.332;18.034;2023-03-14T11:46:38;97577.38;;;7.55;63.59
51715;BME280;39115;59.332;18.034;2023-03-14T11:49:05;97575.94;;;7.53;63.41
51715;BME280;39115;59.332;18.034;2023-03-14T11:51:34;97581.63;;;7.50;63.71
51715;BME280;39115;59.332;18.034;2023-03-14T11:54:02;97583.84;;;7.46;63.79
51715;BME280;39115;59.332;18.034;2023-03-14T11:59:04;97592.91;;;7.37;63.70
51715;BME280;39115;59.332;18.034;2023-03-14T12:01:36;97603.25;;;7.32;64.04
51715;BME280;39115;59.332;18.034;2023-03-14T12:04:10;97605.03;;;7.24;64.05
51715;BME280;39115;59.332;18.034;2023-03-14T12:06:47;97610.25;;;7.18;64.33
51715;BME280;39115;59.332;18.034;2023-03-14T12:09:08;97607.56;;;7.11;64.36
51715;BME280;39115;59.332;18.034;2023-03-14T12:14:31;97601.84;;;7.07;64.64
51715;BME280;39115;59.332;18.034;2023-03-14T12:16:57;97606.28;;;7.07;64.40
51715;BME280;39115;59.332;18.034;2023-03-14T12:21:50;97612.97;;;7.03;64.76
51715;BME280;39115;59.332;18.034;2023-03-14T12:24:18;97609.88;;;6.99;64.77
51715;BME280;39115;59.332;18.034;2023-03-14T12:26:50;97610.25;;;6.96;65.24
51715;BME280;39115;59.332;18.034;2023-03-14T12:29:16;97615.34;;;6.97;64.98
51715;BME280;39115;59.332;18.034;2023-03-14T12:31:40;97611.06;;;6.96;65.06
51715;BME280;39115;59.332;18.034;2023-03-14T12:36:51;97615.09;;;6.92;65.29
51715;BME280;39115;59.332;18.034;2023-03-14T12:42:02;97606.34;;;6.92;65.37
51715;BME280;39115;59.332;18.034;2023-03-14T12:46:51;97599.88;;;6.94;65.59
51715;BME280;39115;59.332;18.034;2023-03-14T12:49:11;97600.47;;;6.96;66.02
51715;BME280;39115;59.332;18.034;2023-03-14T12:51:39;97601.31;;;6.97;65.96
51715;BME280;39115;59.332;18.034;2023-03-14T12:57:15;97598.91;;;7.02;65.86
51715;BME280;39115;59.332;18.034;2023-03-14T13:02:21;97599.31;;;6.99;65.97
51715;BME280;39115;59.332;18.034;2023-03-14T13:07:03;97600.47;;;6.96;66.25
51715;BME280;39115;59.332;18.034;2023-03-14T13:11:53;97605.72;;;6.90;66.46
51715;BME280;39115;59.332;18.034;2023-03-14T13:14:14;97604.84;;;6.83;66.76
51715;BME280;39115;59.332;18.034;2023-03-14T13:16:35;97613.69;;;6.75;66.95
51715;BME280;39115;59.332;18.034;2023-03-14T13:19:03;97621.16;;;6.71;66.95
51715;BME280;39115;59.332;18.034;2023-03-14T13:21:34;97628.50;;;6.54;66.89
51715;BME280;39115;59.332;18.034;2023-03-14T13:26:18;97632.00;;;6.25;67.67